sensor_id;sensor_type;location;lat;lon;timestamp;pressure;altitude;pressure_sealevel;temperature;humidity
20622;BME280;10470;42.670;23.354;2023-01-31T00:00:28;94362.88;;;0.58;100.00
20622;BME280;10470;42.670;23.354;2023-01-31T00:03:14;94375.16;;;0.52;100.00
20622;BME280;10470;42.670;23.354;2023-01-31T00:09:06;94387.41;;;0.53;100.00
20622;BME280;10470;42.670;23.354;2023-01-31T00:11:51;94383.59;;;0.51;100.00
20622;BME280;10470;42.670;23.354;2023-01-31T00:14:37;94384.28;;;0.62;100.00
20622;BME280;10470;42.670;23.354;2023-01-31T00:17:22;94379.34;;;0.53;100.00
20622;BME280;10470;42.670;23.354;2023-01-31T00:20:08;94376.22;;;0.62;100.00
20622;BME280;10470;42.670;23.354;2023-01-31T00:22:54;94370.91;;;0.58;100.00
20622;BME280;10470;42.670;23.354;2023-01-31T00:25:39;94351.84;;;0.46;100.00
20622;BME280;10470;42.670;23.354;2023-01-31T00:28:25;94355.63;;;0.52;100.00
20622;BME280;10470;42.670;23.354;2023-01-31T00:31:12;94365.19;;;0.53;100.00
20622;BME280;10470;42.670;23.354;2023-01-31T00:33:58;94360.25;;;0.48;100.00
20622;BME280;10470;42.670;23.354;2023-01-31T00:36:43;94363.75;;;0.37;100.00
20622;BME280;10470;42.670;23.354;2023-01-31T00:39:29;94364.56;;;0.34;100.00
20622;BME280;10470;42.670;23.354;2023-01-31T00:42:14;94364.09;;;0.43;100.00
20622;BME280;10470;42.670;23.354;2023-01-31T00:45:00;94378.28;;;0.40;100.00
20622;BME280;10470;42.670;23.354;2023-01-31T00:47:45;94372.94;;;0.40;100.00
20622;BME280;10470;42.670;23.354;2023-01-31T00:50:30;94373.28;;;0.46;100.00
20622;BME280;10470;42.670;23.354;2023-01-31T00:53:16;94371.72;;;0.48;100.00
20622;BME280;10470;42.670;23.354;2023-01-31T00:56:13;94369.13;;;0.37;100.00
20622;BME280;10470;42.670;23.354;2023-01-31T00:58:58;94358.03;;;0.35;100.00
20622;BME280;10470;42.670;23.354;2023-01-31T01:01:44;94354.16;;;0.43;100.00
20622;BME280;10470;42.670;23.354;2023-01-31T01:04:29;94263.44;;;-0.17;100.00
20622;BME280;10470;42.670;23.354;2023-01-31T01:07:15;94361.03;;;0.45;100.00
20622;BME280;10470;42.670;23.354;2023-01-31T01:10:00;94367.28;;;0.20;100.00
20622;BME280;10470;42.670;23.354;2023-01-31T01:12:46;94389.84;;;0.26;100.00
20622;BME280;10470;42.670;23.354;2023-01-31T01:15:31;94379.91;;;0.27;100.00
20622;BME280;10470;42.670;23.354;2023-01-31T01:18:17;94384.09;;;0.31;100.00
20622;BME280;10470;42.670;23.354;2023-01-31T01:21:11;94376.88;;;0.21;100.00
20622;BME280;10470;42.670;23.354;2023-01-31T01:24:00;94357.31;;;0.28;100.00
20622;BME280;10470;42.670;23.354;2023-01-31T01:26:46;94356.91;;;0.33;100.00
20622;BME280;10470;42.670;23.354;2023-01-31T01:29:31;94361.88;;;0.31;100.00
20622;BME280;10470;42.670;23.354;2023-01-31T01:32:17;94359.53;;;0.40;100.00
20622;BME280;10470;42.670;23.354;2023-01-31T01:35:03;94352.22;;;0.48;100.00
20622;BME280;10470;42.670;23.354;2023-01-31T01:37:48;94351.69;;;0.67;100.00
20622;BME280;10470;42.670;23.354;2023-01-31T01:40:37;94352.28;;;0.93;100.00
20622;BME280;10470;42.670;23.354;2023-01-31T01:46:41;94345.16;;;1.17;100.00
20622;BME280;10470;42.670;23.354;2023-01-31T01:49:32;94355.06;;;1.23;100.00
20622;BME280;10470;42.670;23.354;2023-01-31T01:52:20;94366.56;;;1.27;100.00
20622;BME280;10470;42.670;23.354;2023-01-31T02:01:04;94341.94;;;1.36;100.00
20622;BME280;10470;42.670;23.354;2023-01-31T02:03:51;94356.03;;;1.44;100.00
20622;BME280;10470;42.670;23.354;2023-01-31T02:06:37;94351.47;;;1.41;100.00
20622;BME280;10470;42.670;23.354;2023-01-31T02:09:28;94342.66;;;1.40;100.00
20622;BME280;10470;42.670;23.354;2023-01-31T02:12:16;94369.06;;;1.45;100.00
20622;BME280;10470;42.670;23.354;2023-01-31T02:15:01;94357.91;;;1.47;100.00
20622;BME280;10470;42.670;23.354;2023-01-31T02:17:47;94371.28;;;1.50;100.00
20622;BME280;10470;42.670;23.354;2023-01-31T02:34:01;94375.59;;;1.44;100.00
20622;BME280;10470;42.670;23.354;2023-01-31T02:39:49;94352.66;;;1.36;100.00
20622;BME280;10470;42.670;23.354;2023-01-31T02:42:41;94381.06;;;1.34;100.00
20622;BME280;10470;42.670;23.354;2023-01-31T02:45:40;94376.38;;;1.41;100.00
20622;BME280;10470;42.670;23.354;2023-01-31T02:51:26;94381.78;;;1.38;100.00
20622;BME280;10470;42.670;23.354;2023-01-31T02:54:16;94379.88;;;1.35;100.00
20622;BME280;10470;42.670;23.354;2023-01-31T02:57:03;94390.19;;;1.40;100.00
20622;BME280;10470;42.670;23.354;2023-01-31T02:59:48;94413.59;;;1.39;100.00
20622;BME280;10470;42.670;23.354;2023-01-31T03:02:34;94397.47;;;1.39;100.00
20622;BME280;10470;42.670;23.354;2023-01-31T03:05:20;94410.91;;;1.39;100.00
20622;BME280;10470;42.670;23.354;2023-01-31T03:08:06;94320.66;;;0.73;100.00
20622;BME280;10470;42.670;23.354;2023-01-31T03:11:01;94415.97;;;1.30;100.00
20622;BME280;10470;42.670;23.354;2023-01-31T03:17:34;94435.94;;;1.22;100.00
20622;BME280;10470;42.670;23.354;2023-01-31T03:20:30;94435.63;;;1.20;100.00
20622;BME280;10470;42.670;23.354;2023-01-31T03:23:20;94433.69;;;1.17;100.00
20622;BME280;10470;42.670;23.354;2023-01-31T03:26:07;94439.88;;;1.10;100.00
20622;BME280;10470;42.670;23.354;2023-01-31T03:28:54;94440.59;;;1.18;100.00
20622;BME280;10470;42.670;23.354;2023-01-31T03:31:51;94438.31;;;1.16;100.00
20622;BME280;10470;42.670;23.354;2023-01-31T03:34:39;94436.47;;;1.06;100.00
20622;BME280;10470;42.670;23.354;2023-01-31T03:37:47;94449.88;;;1.09;100.00
20622;BME280;10470;42.670;23.354;2023-01-31T03:40:42;94449.09;;;1.09;100.00
20622;BME280;10470;42.670;23.354;2023-01-31T03:43:38;94465.19;;;1.09;100.00
20622;BME280;10470;42.670;23.354;2023-01-31T03:46:31;94475.56;;;1.07;100.00
20622;BME280;10470;42.670;23.354;2023-01-31T03:49:21;94479.47;;;0.92;100.00
20622;BME280;10470;42.670;23.354;2023-01-31T03:52:09;94464.16;;;0.92;100.00
20622;BME280;10470;42.670;23.354;2023-01-31T03:55:01;94468.00;;;0.91;100.00
20622;BME280;10470;42.670;23.354;2023-01-31T03:57:51;94463.06;;;0.75;100.00
20622;BME280;10470;42.670;23.354;2023-01-31T04:00:39;94476.41;;;0.90;100.00
20622;BME280;10470;42.670;23.354;2023-01-31T04:03:34;94436.75;;;0.59;100.00
20622;BME280;10470;42.670;23.354;2023-01-31T04:06:21;94464.22;;;0.81;100.00
20622;BME280;10470;42.670;23.354;2023-01-31T04:09:04;94466.38;;;1.01;100.00
20622;BME280;10470;42.670;23.354;2023-01-31T04:11:50;94460.78;;;0.77;100.00
20622;BME280;10470;42.670;23.354;2023-01-31T04:14:36;94481.00;;;0.93;100.00
20622;BME280;10470;42.670;23.354;2023-01-31T04:17:21;94465.69;;;0.90;100.00
20622;BME280;10470;42.670;23.354;2023-01-31T04:20:07;94465.75;;;0.79;100.00
20622;BME280;10470;42.670;23.354;2023-01-31T04:22:54;94466.13;;;0.77;100.00
20622;BME280;10470;42.670;23.354;2023-01-31T04:25:39;94470.03;;;0.69;100.00
20622;BME280;10470;42.670;23.354;2023-01-31T04:28:24;94466.53;;;0.79;100.00
20622;BME280;10470;42.670;23.354;2023-01-31T04:31:10;94465.81;;;0.68;100.00
20622;BME280;10470;42.670;23.354;2023-01-31T04:33:56;94469.22;;;0.72;100.00
20622;BME280;10470;42.670;23.354;2023-01-31T04:36:42;94482.69;;;0.65;100.00
20622;BME280;10470;42.670;23.354;2023-01-31T04:39:27;94476.56;;;0.61;100.00
20622;BME280;10470;42.670;23.354;2023-01-31T04:42:13;94481.94;;;0.61;100.00
20622;BME280;10470;42.670;23.354;2023-01-31T04:44:58;94494.97;;;0.59;100.00
20622;BME280;10470;42.670;23.354;2023-01-31T04:47:44;94506.06;;;0.61;100.00
20622;BME280;10470;42.670;23.354;2023-01-31T04:50:29;94509.16;;;0.49;100.00
20622;BME280;10470;42.670;23.354;2023-01-31T04:53:14;94501.47;;;0.61;100.00
20622;BME280;10470;42.670;23.354;2023-01-31T04:56:00;94502.22;;;0.65;100.00
20622;BME280;10470;42.670;23.354;2023-01-31T04:58:46;94505.69;;;0.59;100.00
20622;BME280;10470;42.670;23.354;2023-01-31T05:01:32;94507.56;;;0.62;100.00
20622;BME280;10470;42.670;23.354;2023-01-31T05:04:17;94498.78;;;0.61;100.00
20622;BME280;10470;42.670;23.354;2023-01-31T05:07:03;94497.66;;;0.52;100.00
20622;BME280;10470;42.670;23.354;2023-01-31T05:09:48;94499.53;;;0.65;100.00
20622;BME280;10470;42.670;23.354;2023-01-31T05:12:34;94466.72;;;0.40;100.00
20622;BME280;10470;42.670;23.354;2023-01-31T05:15:19;94495.31;;;0.68;100.00
20622;BME280;10470;42.670;23.354;2023-01-31T05:18:05;94489.16;;;0.71;100.00
20622;BME280;10470;42.670;23.354;2023-01-31T05:20:51;94494.16;;;0.65;100.00
20622;BME280;10470;42.670;23.354;2023-01-31T05:23:36;94500.66;;;0.68;100.00
20622;BME280;10470;42.670;23.354;2023-01-31T05:26:22;94520.22;;;0.65;100.00
20622;BME280;10470;42.670;23.354;2023-01-31T05:29:07;94514.03;;;0.72;100.00
20622;BME280;10470;42.670;23.354;2023-01-31T05:31:54;94479.22;;;0.64;100.00
20622;BME280;10470;42.670;23.354;2023-01-31T05:34:40;94512.13;;;0.76;100.00
20622;BME280;10470;42.670;23.354;2023-01-31T05:37:26;94514.03;;;0.72;100.00
20622;BME280;10470;42.670;23.354;2023-01-31T05:40:13;94516.28;;;0.80;100.00
20622;BME280;10470;42.670;23.354;2023-01-31T05:43:00;94513.63;;;0.80;100.00
20622;BME280;10470;42.670;23.354;2023-01-31T05:45:47;94517.81;;;0.85;100.00
20622;BME280;10470;42.670;23.354;2023-01-31T05:48:33;94524.72;;;0.86;100.00
20622;BME280;10470;42.670;23.354;2023-01-31T05:51:18;94514.75;;;0.86;100.00
20622;BME280;10470;42.670;23.354;2023-01-31T05:54:04;94515.88;;;0.89;100.00
20622;BME280;10470;42.670;23.354;2023-01-31T05:56:49;94509.38;;;0.86;100.00
20622;BME280;10470;42.670;23.354;2023-01-31T05:59:35;94539.25;;;0.85;100.00
20622;BME280;10470;42.670;23.354;2023-01-31T06:02:20;94534.97;;;0.98;100.00
20622;BME280;10470;42.670;23.354;2023-01-31T06:05:07;94529.66;;;0.95;100.00
20622;BME280;10470;42.670;23.354;2023-01-31T06:07:53;94512.03;;;0.90;100.00
20622;BME280;10470;42.670;23.354;2023-01-31T06:10:38;94522.34;;;0.95;100.00
20622;BME280;10470;42.670;23.354;2023-01-31T06:13:24;94533.81;;;1.03;100.00
20622;BME280;10470;42.670;23.354;2023-01-31T06:16:10;94539.94;;;1.07;100.00
20622;BME280;10470;42.670;23.354;2023-01-31T06:18:55;94538.75;;;1.12;100.00
20622;BME280;10470;42.670;23.354;2023-01-31T06:21:41;94553.28;;;1.18;100.00
20622;BME280;10470;42.670;23.354;2023-01-31T06:24:26;94555.53;;;1.26;100.00
20622;BME280;10470;42.670;23.354;2023-01-31T06:27:12;94551.66;;;1.31;100.00
20622;BME280;10470;42.670;23.354;2023-01-31T06:29:57;94560.88;;;1.26;100.00
20622;BME280;10470;42.670;23.354;2023-01-31T06:32:43;94556.00;;;1.11;100.00
20622;BME280;10470;42.670;23.354;2023-01-31T06:35:28;94547.56;;;1.12;100.00
20622;BME280;10470;42.670;23.354;2023-01-31T06:38:13;94553.66;;;1.16;100.00
20622;BME280;10470;42.670;23.354;2023-01-31T06:41:00;94554.03;;;1.18;100.00
20622;BME280;10470;42.670;23.354;2023-01-31T06:43:46;94562.81;;;1.26;100.00
20622;BME280;10470;42.670;23.354;2023-01-31T06:46:32;94560.88;;;1.26;100.00
20622;BME280;10470;42.670;23.354;2023-01-31T06:49:17;94571.63;;;1.26;100.00
20622;BME280;10470;42.670;23.354;2023-01-31T06:52:03;94566.69;;;1.18;100.00
20622;BME280;10470;42.670;23.354;2023-01-31T06:54:49;94580.41;;;1.34;100.00
20622;BME280;10470;42.670;23.354;2023-01-31T06:57:34;94572.38;;;1.30;100.00
20622;BME280;10470;42.670;23.354;2023-01-31T07:00:20;94571.72;;;1.12;100.00
20622;BME280;10470;42.670;23.354;2023-01-31T07:03:06;94574.31;;;1.26;100.00
20622;BME280;10470;42.670;23.354;2023-01-31T07:05:51;94575.03;;;1.38;100.00
20622;BME280;10470;42.670;23.354;2023-01-31T07:08:37;94571.25;;;1.24;100.00
20622;BME280;10470;42.670;23.354;2023-01-31T07:11:22;94575.06;;;1.27;100.00
20622;BME280;10470;42.670;23.354;2023-01-31T07:14:08;94582.28;;;1.37;100.00
20622;BME280;10470;42.670;23.354;2023-01-31T07:16:42;94571.22;;;1.31;100.00
20622;BME280;10470;42.670;23.354;2023-01-31T07:19:27;94575.31;;;1.50;100.00
20622;BME280;10470;42.670;23.354;2023-01-31T07:22:13;94582.19;;;1.59;100.00
20622;BME280;10470;42.670;23.354;2023-01-31T07:24:58;94592.09;;;1.65;100.00
20622;BME280;10470;42.670;23.354;2023-01-31T07:27:44;94578.03;;;1.47;100.00
20622;BME280;10470;42.670;23.354;2023-01-31T07:30:29;94574.91;;;1.52;100.00
20622;BME280;10470;42.670;23.354;2023-01-31T07:33:15;94578.66;;;1.69;100.00
20622;BME280;10470;42.670;23.354;2023-01-31T07:36:04;94586.78;;;1.55;100.00
20622;BME280;10470;42.670;23.354;2023-01-31T07:38:52;94582.19;;;1.59;100.00
20622;BME280;10470;42.670;23.354;2023-01-31T07:41:37;94569.53;;;1.56;100.00
20622;BME280;10470;42.670;23.354;2023-01-31T07:44:23;94569.81;;;1.72;100.00
20622;BME280;10470;42.670;23.354;2023-01-31T07:47:08;94579.41;;;1.69;100.00
20622;BME280;10470;42.670;23.354;2023-01-31T07:49:54;94580.44;;;1.86;100.00
20622;BME280;10470;42.670;23.354;2023-01-31T07:52:39;94577.81;;;1.79;100.00
20622;BME280;10470;42.670;23.354;2023-01-31T07:55:25;94585.03;;;1.86;100.00
20622;BME280;10470;42.670;23.354;2023-01-31T07:58:10;94587.31;;;1.91;100.00
20622;BME280;10470;42.670;23.354;2023-01-31T08:00:56;94578.97;;;1.78;100.00
20622;BME280;10470;42.670;23.354;2023-01-31T08:04:00;94566.56;;;1.91;100.00
20622;BME280;10470;42.670;23.354;2023-01-31T08:06:46;94564.16;;;2.04;100.00
20622;BME280;10470;42.670;23.354;2023-01-31T08:09:33;94570.09;;;1.85;100.00
20622;BME280;10470;42.670;23.354;2023-01-31T08:12:18;94574.00;;;1.77;100.00
20622;BME280;10470;42.670;23.354;2023-01-31T08:15:04;94568.53;;;1.87;100.00
20622;BME280;10470;42.670;23.354;2023-01-31T08:17:49;94565.34;;;2.00;100.00
20622;BME280;10470;42.670;23.354;2023-01-31T08:20:35;94576.94;;;1.89;100.00
20622;BME280;10470;42.670;23.354;2023-01-31T08:23:21;94559.63;;;1.94;100.00
20622;BME280;10470;42.670;23.354;2023-01-31T08:26:13;94549.66;;;1.98;100.00
20622;BME280;10470;42.670;23.354;2023-01-31T08:29:00;94554.34;;;2.28;100.00
20622;BME280;10470;42.670;23.354;2023-01-31T08:31:45;94546.47;;;2.10;100.00
20622;BME280;10470;42.670;23.354;2023-01-31T08:34:31;94550.19;;;2.24;100.00
20622;BME280;10470;42.670;23.354;2023-01-31T08:37:16;94556.78;;;2.15;100.00
20622;BME280;10470;42.670;23.354;2023-01-31T08:40:02;94556.84;;;2.46;100.00
20622;BME280;10470;42.670;23.354;2023-01-31T08:42:57;94561.50;;;2.42;100.00
20622;BME280;10470;42.670;23.354;2023-01-31T08:45:44;94550.03;;;2.38;100.00
20622;BME280;10470;42.670;23.354;2023-01-31T08:48:34;94573.78;;;2.43;100.00
20622;BME280;10470;42.670;23.354;2023-01-31T08:51:20;94554.00;;;2.26;100.00
20622;BME280;10470;42.670;23.354;2023-01-31T08:54:06;94565.34;;;2.41;100.00
20622;BME280;10470;42.670;23.354;2023-01-31T08:56:53;94549.06;;;2.21;100.00
20622;BME280;10470;42.670;23.354;2023-01-31T08:59:39;94562.59;;;2.10;100.00
20622;BME280;10470;42.670;23.354;2023-01-31T09:02:24;94558.09;;;2.38;100.00
20622;BME280;10470;42.670;23.354;2023-01-31T09:05:10;94571.41;;;2.52;100.00
20622;BME280;10470;42.670;23.354;2023-01-31T09:07:55;94570.16;;;2.60;100.00
20622;BME280;10470;42.670;23.354;2023-01-31T09:10:41;94580.41;;;2.73;100.00
20622;BME280;10470;42.670;23.354;2023-01-31T09:13:27;94579.97;;;2.78;100.00
20622;BME280;10470;42.670;23.354;2023-01-31T09:16:14;94570.78;;;2.72;100.00
20622;BME280;10470;42.670;23.354;2023-01-31T09:18:59;94565.47;;;2.68;100.00
20622;BME280;10470;42.670;23.354;2023-01-31T09:21:45;94562.59;;;2.82;100.00
20622;BME280;10470;42.670;23.354;2023-01-31T09:24:28;94559.22;;;2.75;100.00
20622;BME280;10470;42.670;23.354;2023-01-31T09:27:14;94562.38;;;3.31;100.00
20622;BME280;10470;42.670;23.354;2023-01-31T09:30:00;94532.25;;;3.13;100.00
20622;BME280;10470;42.670;23.354;2023-01-31T09:32:45;94563.25;;;2.94;100.00
20622;BME280;10470;42.670;23.354;2023-01-31T09:35:31;94558.31;;;2.89;100.00
20622;BME280;10470;42.670;23.354;2023-01-31T09:38:16;94538.22;;;2.97;100.00
20622;BME280;10470;42.670;23.354;2023-01-31T09:41:08;94541.50;;;3.12;100.00
20622;BME280;10470;42.670;23.354;2023-01-31T09:44:02;94540.09;;;3.31;100.00
20622;BME280;10470;42.670;23.354;2023-01-31T09:46:58;94552.31;;;3.35;100.00
20622;BME280;10470;42.670;23.354;2023-01-31T09:49:51;94542.78;;;3.31;100.00
20622;BME280;10470;42.670;23.354;2023-01-31T09:52:38;94551.44;;;3.42;100.00
20622;BME280;10470;42.670;23.354;2023-01-31T09:55:49;94543.28;;;3.22;100.00
20622;BME280;10470;42.670;23.354;2023-01-31T10:01:37;94535.84;;;3.57;100.00
20622;BME280;10470;42.670;23.354;2023-01-31T10:07:49;94528.72;;;3.70;100.00
20622;BME280;10470;42.670;23.354;2023-01-31T10:10:50;94533.81;;;3.37;100.00
20622;BME280;10470;42.670;23.354;2023-01-31T10:13:48;94538.34;;;3.71;100.00
20622;BME280;10470;42.670;23.354;2023-01-31T10:20:21;94539.41;;;4.01;100.00
20622;BME280;10470;42.670;23.354;2023-01-31T10:23:24;94534.47;;;3.72;100.00
20622;BME280;10470;42.670;23.354;2023-01-31T10:26:16;94526.44;;;4.15;100.00
20622;BME280;10470;42.670;23.354;2023-01-31T10:29:17;94530.28;;;3.94;100.00
20622;BME280;10470;42.670;23.354;2023-01-31T10:32:10;94531.41;;;3.70;100.00
20622;BME280;10470;42.670;23.354;2023-01-31T10:38:30;94513.38;;;3.40;100.00
20622;BME280;10470;42.670;23.354;2023-01-31T10:41:24;94510.31;;;3.41;100.00
20622;BME280;10470;42.670;23.354;2023-01-31T10:44:26;94525.19;;;3.49;100.00
20622;BME280;10470;42.670;23.354;2023-01-31T10:47:18;94534.19;;;3.90;100.00
20622;BME280;10470;42.670;23.354;2023-01-31T10:50:14;94523.63;;;3.76;100.00
20622;BME280;10470;42.670;23.354;2023-01-31T10:53:04;94528.97;;;3.79;100.00
20622;BME280;10470;42.670;23.354;2023-01-31T10:59:29;94540.03;;;3.85;100.00
20622;BME280;10470;42.670;23.354;2023-01-31T11:02:19;94531.66;;;3.79;100.00
20622;BME280;10470;42.670;23.354;2023-01-31T11:05:06;94524.09;;;3.70;100.00
20622;BME280;10470;42.670;23.354;2023-01-31T11:08:00;94533.94;;;3.30;100.00
20622;BME280;10470;42.670;23.354;2023-01-31T11:10:52;94528.63;;;3.50;100.00
20622;BME280;10470;42.670;23.354;2023-01-31T11:13:38;94524.50;;;3.45;100.00
20622;BME280;10470;42.670;23.354;2023-01-31T11:16:27;94516.50;;;3.38;100.00
20622;BME280;10470;42.670;23.354;2023-01-31T11:19:34;94532.41;;;3.29;100.00
20622;BME280;10470;42.670;23.354;2023-01-31T11:22:31;94516.16;;;3.36;100.00
20622;BME280;10470;42.670;23.354;2023-01-31T11:25:04;94535.81;;;3.33;100.00
20622;BME280;10470;42.670;23.354;2023-01-31T11:27:53;94526.19;;;3.05;100.00
20622;BME280;10470;42.670;23.354;2023-01-31T11:30:39;94535.84;;;3.02;100.00
20622;BME280;10470;42.670;23.354;2023-01-31T11:33:41;94536.44;;;3.14;100.00
20622;BME280;10470;42.670;23.354;2023-01-31T11:36:40;94530.63;;;3.19;100.00
20622;BME280;10470;42.670;23.354;2023-01-31T11:39:33;94534.63;;;3.07;100.00
20622;BME280;10470;42.670;23.354;2023-01-31T11:42:18;94528.34;;;2.87;100.00
20622;BME280;10470;42.670;23.354;2023-01-31T11:45:16;94519.38;;;2.97;100.00
20622;BME280;10470;42.670;23.354;2023-01-31T11:48:17;94519.06;;;2.91;100.00
20622;BME280;10470;42.670;23.354;2023-01-31T11:51:03;94521.47;;;2.86;100.00
20622;BME280;10470;42.670;23.354;2023-01-31T11:53:49;94524.75;;;2.66;100.00
20622;BME280;10470;42.670;23.354;2023-01-31T11:56:36;94521.50;;;2.48;100.00
20622;BME280;10470;42.670;23.354;2023-01-31T11:59:26;94526.41;;;2.56;100.00
20622;BME280;10470;42.670;23.354;2023-01-31T12:05:13;94514.19;;;2.48;100.00
20622;BME280;10470;42.670;23.354;2023-01-31T12:08:00;94526.94;;;2.44;100.00
20622;BME280;10470;42.670;23.354;2023-01-31T12:10:45;94517.00;;;2.37;100.00
20622;BME280;10470;42.670;23.354;2023-01-31T12:13:48;94516.44;;;2.53;100.00
20622;BME280;10470;42.670;23.354;2023-01-31T12:16:34;94517.13;;;2.27;100.00
20622;BME280;10470;42.670;23.354;2023-01-31T12:22:30;94505.06;;;2.42;100.00
20622;BME280;10470;42.670;23.354;2023-01-31T12:25:32;94497.34;;;2.44;100.00
20622;BME280;10470;42.670;23.354;2023-01-31T12:31:57;94507.13;;;2.61;100.00
20622;BME280;10470;42.670;23.354;2023-01-31T12:34:59;94516.09;;;2.82;100.00
20622;BME280;10470;42.670;23.354;2023-01-31T12:54:01;94521.47;;;2.82;100.00
20622;BME280;10470;42.670;23.354;2023-01-31T12:57:55;94531.19;;;2.76;100.00
20622;BME280;10470;42.670;23.354;2023-01-31T13:00:31;94523.19;;;2.69;100.00
20622;BME280;10470;42.670;23.354;2023-01-31T13:06:20;94521.75;;;2.23;100.00
20622;BME280;10470;42.670;23.354;2023-01-31T13:09:20;94524.50;;;2.19;100.00
20622;BME280;10470;42.670;23.354;2023-01-31T13:12:20;94525.88;;;2.34;100.00
20622;BME280;10470;42.670;23.354;2023-01-31T13:15:36;94525.63;;;2.59;100.00
20622;BME280;10470;42.670;23.354;2023-01-31T13:18:20;94531.66;;;2.67;100.00
20622;BME280;10470;42.670;23.354;2023-01-31T13:21:10;94531.81;;;2.53;100.00
20622;BME280;10470;42.670;23.354;2023-01-31T13:24:03;94537.94;;;2.57;100.00
20622;BME280;10470;42.670;23.354;2023-01-31T13:27:10;94529.94;;;2.50;100.00
20622;BME280;10470;42.670;23.354;2023-01-31T13:30:05;94535.56;;;2.62;100.00
20622;BME280;10470;42.670;23.354;2023-01-31T13:32:55;94539.31;;;2.69;100.00
20622;BME280;10470;42.670;23.354;2023-01-31T13:35:42;94538.94;;;2.70;100.00
20622;BME280;10470;42.670;23.354;2023-01-31T13:38:36;94541.66;;;2.67;100.00
20622;BME280;10470;42.670;23.354;2023-01-31T13:41:32;94546.28;;;2.66;100.00
20622;BME280;10470;42.670;23.354;2023-01-31T13:44:18;94541.81;;;2.52;100.00
20622;BME280;10470;42.670;23.354;2023-01-31T13:50:57;94542.25;;;2.47;100.00
20622;BME280;10470;42.670;23.354;2023-01-31T13:53:40;94555.25;;;2.52;100.00
20622;BME280;10470;42.670;23.354;2023-01-31T13:56:31;94542.66;;;2.46;100.00
20622;BME280;10470;42.670;23.354;2023-01-31T13:59:23;94537.84;;;2.64;100.00
20622;BME280;10470;42.670;23.354;2023-01-31T14:02:17;94546.81;;;2.50;100.00
20622;BME280;10470;42.670;23.354;2023-01-31T14:05:06;94545.19;;;2.60;100.00
20622;BME280;10470;42.670;23.354;2023-01-31T14:14:09;94556.25;;;2.66;100.00
20622;BME280;10470;42.670;23.354;2023-01-31T14:16:56;94561.00;;;2.54;100.00
20622;BME280;10470;42.670;23.354;2023-01-31T14:22:28;94560.53;;;2.63;100.00
20622;BME280;10470;42.670;23.354;2023-01-31T14:25:39;94563.34;;;2.52;100.00
20622;BME280;10470;42.670;23.354;2023-01-31T14:28:25;94564.56;;;2.44;100.00
20622;BME280;10470;42.670;23.354;2023-01-31T14:31:12;94564.13;;;2.49;100.00
20622;BME280;10470;42.670;23.354;2023-01-31T14:33:58;94568.78;;;2.45;100.00
20622;BME280;10470;42.670;23.354;2023-01-31T14:37:14;94574.84;;;2.53;100.00
20622;BME280;10470;42.670;23.354;2023-01-31T14:40:28;94572.66;;;2.40;100.00
20622;BME280;10470;42.670;23.354;2023-01-31T14:52:21;94573.94;;;2.25;100.00
20622;BME280;10470;42.670;23.354;2023-01-31T14:58:23;94618.63;;;2.53;100.00
20622;BME280;10470;42.670;23.354;2023-01-31T15:01:11;94620.94;;;2.55;100.00
20622;BME280;10470;42.670;23.354;2023-01-31T15:03:57;94615.56;;;2.51;100.00
20622;BME280;10470;42.670;23.354;2023-01-31T15:06:49;94619.25;;;2.27;100.00
20622;BME280;10470;42.670;23.354;2023-01-31T15:09:38;94611.25;;;2.23;100.00
20622;BME280;10470;42.670;23.354;2023-01-31T15:12:55;94621.16;;;2.30;100.00
20622;BME280;10470;42.670;23.354;2023-01-31T15:15:46;94632.69;;;2.27;100.00
20622;BME280;10470;42.670;23.354;2023-01-31T15:18:33;94629.16;;;2.33;100.00
20622;BME280;10470;42.670;23.354;2023-01-31T15:21:29;94625.84;;;2.18;100.00
20622;BME280;10470;42.670;23.354;2023-01-31T15:24:24;94625.13;;;2.14;100.00
20622;BME280;10470;42.670;23.354;2023-01-31T15:27:22;94632.38;;;2.17;100.00
20622;BME280;10470;42.670;23.354;2023-01-31T15:30:14;94625.16;;;2.11;100.00
20622;BME280;10470;42.670;23.354;2023-01-31T15:33:05;94637.09;;;2.06;100.00
20622;BME280;10470;42.670;23.354;2023-01-31T15:36:02;94643.97;;;2.07;100.00
20622;BME280;10470;42.670;23.354;2023-01-31T15:38:55;94645.81;;;2.17;100.00
20622;BME280;10470;42.670;23.354;2023-01-31T15:41:42;94637.47;;;2.08;100.00
20622;BME280;10470;42.670;23.354;2023-01-31T15:44:28;94643.59;;;2.09;100.00
20622;BME280;10470;42.670;23.354;2023-01-31T15:47:22;94650.50;;;2.06;100.00
20622;BME280;10470;42.670;23.354;2023-01-31T15:50:31;94658.94;;;2.08;100.00
20622;BME280;10470;42.670;23.354;2023-01-31T15:53:18;94651.97;;;2.18;100.00
20622;BME280;10470;42.670;23.354;2023-01-31T15:56:09;94664.31;;;2.08;100.00
20622;BME280;10470;42.670;23.354;2023-01-31T15:58:58;94663.16;;;2.13;100.00
20622;BME280;10470;42.670;23.354;2023-01-31T16:01:47;94659.75;;;2.05;100.00
20622;BME280;10470;42.670;23.354;2023-01-31T16:04:32;94671.25;;;2.02;100.00
20622;BME280;10470;42.670;23.354;2023-01-31T16:07:19;94663.56;;;2.04;100.00
20622;BME280;10470;42.670;23.354;2023-01-31T16:10:06;94669.31;;;2.06;100.00
20622;BME280;10470;42.670;23.354;2023-01-31T16:12:57;94667.81;;;2.02;100.00
20622;BME280;10470;42.670;23.354;2023-01-31T16:15:43;94678.56;;;2.05;100.00
20622;BME280;10470;42.670;23.354;2023-01-31T16:18:29;94691.16;;;2.12;100.00
20622;BME280;10470;42.670;23.354;2023-01-31T16:21:34;94695.41;;;2.13;100.00
20622;BME280;10470;42.670;23.354;2023-01-31T16:24:22;94677.78;;;2.05;100.00
20622;BME280;10470;42.670;23.354;2023-01-31T16:27:13;94680.03;;;2.13;100.00
20622;BME280;10470;42.670;23.354;2023-01-31T16:29:59;94650.34;;;1.75;100.00